Time;durP1;ratioP1;P1;durP2;ratioP2;P2;SDS_P1;SDS_P2;PMS_P1;PMS_P2;Temp;Humidity;BMP_temperature;BMP_pressure;BME280_temperature;BME280_humidity;BME280_pressure;Samples;Min_cycle;Max_cycle;Signal;HPM_P1;HPM_P2
2022/01/15 00:01:12;;;;;;;154.17;26.60;;;;;;;-0.31;67.85;100669.53;5060628;28;20266;-67
2022/01/15 00:03:39;;;;;;;154.83;24.57;;;;;;;-0.37;67.04;100644.47;5065306;28;20224;-67
2022/01/15 00:06:06;;;;;;;250.63;27.53;;;;;;;-1.20;69.62;100642.47;5065791;28;20223;-67
2022/01/15 00:08:33;;;;;;;96.53;21.23;;;;;;;-0.99;69.16;100651.13;5058846;28;20232;-67
2022/01/15 00:11:00;;;;;;;223.63;27.73;;;;;;;-0.35;67.61;100639.16;5057126;28;20232;-67
2022/01/15 00:13:30;;;;;;;106.57;23.70;;;;;;;-0.78;68.55;100633.47;5066611;28;20924;-67
2022/01/15 00:16:28;;;;;;;58.47;21.60;;;;;;;-1.07;69.58;100633.94;5056904;28;20968;-67
2022/01/15 00:19:02;;;;;;;155.77;24.30;;;;;;;-0.53;68.40;100641.78;5057439;28;20221;-67
2022/01/15 00:21:29;;;;;;;131.47;22.57;;;;;;;-0.64;68.62;100630.16;5056803;28;20232;-67
2022/01/15 00:23:55;;;;;;;69.30;20.70;;;;;;;-0.72;68.47;100627.94;5066530;28;20219;-67
2022/01/15 00:26:22;;;;;;;196.87;24.53;;;;;;;-0.87;68.15;100624.31;5050467;28;20242;-67
2022/01/15 00:28:49;;;;;;;207.47;28.00;;;;;;;-1.54;70.26;100623.16;5065073;28;20234;-67
2022/01/15 00:31:16;;;;;;;103.23;23.33;;;;;;;-1.30;71.06;100663.00;5065150;28;20751;-67
2022/01/15 00:33:44;;;;;;;106.47;22.70;;;;;;;-0.90;69.40;100638.38;5066438;28;20621;-67
2022/01/15 00:36:11;;;;;;;125.07;23.40;;;;;;;-2.18;71.05;100573.78;5067306;28;20745;-67
2022/01/15 00:38:37;;;;;;;73.23;21.33;;;;;;;-0.86;69.67;100646.97;5067173;28;20230;-67
2022/01/15 00:41:04;;;;;;;90.40;22.40;;;;;;;-0.74;68.58;100628.00;5066928;28;20215;-67
2022/01/15 00:43:32;;;;;;;121.47;21.53;;;;;;;-1.54;70.63;100610.91;5066043;28;20688;-67
2022/01/15 00:45:59;;;;;;;135.87;21.63;;;;;;;-0.63;68.58;100626.63;5066660;28;20226;-67
2022/01/15 00:48:26;;;;;;;102.03;20.80;;;;;;;-0.83;69.22;100633.69;5066646;28;20235;-67
2022/01/15 00:50:54;;;;;;;94.17;21.63;;;;;;;-1.51;70.94;100630.88;5067225;28;20230;-67
2022/01/15 00:53:20;;;;;;;109.00;23.77;;;;;;;-0.80;69.19;100627.47;5064361;28;20220;-67
2022/01/15 00:55:47;;;;;;;83.30;21.87;;;;;;;-1.00;69.46;100621.44;5066724;28;20233;-67
2022/01/15 00:58:14;;;;;;;83.97;23.97;;;;;;;-0.46;68.54;100631.81;5065454;28;20223;-67
2022/01/15 01:00:43;;;;;;;105.17;25.47;;;;;;;-0.41;67.21;100603.59;5066029;28;20539;-67
2022/01/15 01:03:10;;;;;;;111.47;23.30;;;;;;;-0.69;67.78;100594.56;5065308;28;20232;-67
2022/01/15 01:05:37;;;;;;;141.53;23.00;;;;;;;-0.83;68.66;100611.91;5065672;28;20227;-67
2022/01/15 01:08:04;;;;;;;94.47;21.40;;;;;;;-0.43;67.68;100602.84;5067346;28;20223;-67
2022/01/15 01:24:16;;;;;;;112.03;22.83;;;;;;;-1.46;71.65;100621.88;5050003;28;20737;-67
2022/01/15 01:29:29;;;;;;;101.70;23.90;;;;;;;-0.83;70.35;100627.63;5066558;28;20819;-67
2022/01/15 01:34:39;;;;;;;90.90;22.17;;;;;;;-0.75;69.49;100600.09;5064809;28;20237;-67
2022/01/15 01:37:18;;;;;;;102.77;22.20;;;;;;;-1.50;71.91;100609.88;5064955;28;20239;-67
2022/01/15 01:39:50;;;;;;;109.30;23.17;;;;;;;-1.19;71.27;100618.00;5066025;28;20332;-67
2022/01/15 01:45:01;;;;;;;96.13;21.67;;;;;;;-1.29;71.02;100610.59;5064765;28;20220;-67
2022/01/15 01:47:39;;;;;;;103.03;23.43;;;;;;;-1.59;71.34;100597.19;5065942;28;20228;-67
2022/01/15 01:50:22;;;;;;;65.33;21.23;;;;;;;-0.94;70.96;100615.06;5062770;28;20223;-66
2022/01/15 01:52:55;;;;;;;139.20;24.80;;;;;;;-1.65;72.13;100597.50;5062821;28;20228;-66
2022/01/15 01:55:25;;;;;;;132.47;25.27;;;;;;;-1.31;71.83;100608.97;5062560;28;20230;-66
2022/01/15 01:57:55;;;;;;;129.07;25.03;;;;;;;-1.29;71.83;100615.00;5063902;28;20231;-66
2022/01/15 02:00:24;;;;;;;81.30;21.97;;;;;;;-2.19;74.29;100595.59;5065383;28;20606;-67
2022/01/15 02:02:53;;;;;;;76.93;23.37;;;;;;;-1.56;72.42;100606.69;5057579;28;20219;-67
2022/01/15 02:05:21;;;;;;;96.00;24.53;;;;;;;-1.56;72.20;100601.47;5064213;28;20231;-67
2022/01/15 02:07:49;;;;;;;94.00;25.20;;;;;;;-0.93;71.15;100593.16;5065174;28;20725;-67
2022/01/15 02:10:19;;;;;;;94.77;23.40;;;;;;;-1.48;71.05;100567.91;5048534;28;20614;-66
2022/01/15 02:12:51;;;;;;;109.00;25.47;;;;;;;-1.10;71.36;100580.88;5053331;28;20590;-67
2022/01/15 02:15:21;;;;;;;102.77;23.80;;;;;;;-1.36;72.23;100590.88;5052009;28;20227;-67
2022/01/15 02:17:49;;;;;;;148.10;25.33;;;;;;;-0.23;69.08;100582.59;5044566;28;20237;-67
2022/01/15 02:25:56;;;;;;;116.63;26.60;;;;;;;-1.49;71.83;100577.53;5065057;28;20257;-67
2022/01/15 02:28:35;;;;;;;166.17;26.93;;;;;;;-0.96;71.19;100573.22;5063507;28;20376;-67
2022/01/15 02:31:04;;;;;;;151.60;27.83;;;;;;;-1.48;72.19;100574.00;5065831;28;20231;-67
2022/01/15 02:33:32;;;;;;;165.07;27.73;;;;;;;-1.14;71.29;100566.25;5063494;28;20611;-67
2022/01/15 02:36:02;;;;;;;152.60;29.67;;;;;;;-1.23;72.61;100572.81;5064913;28;20248;-66
2022/01/15 02:38:29;;;;;;;250.43;30.17;;;;;;;-1.39;72.93;100582.31;5063935;28;20227;-66
2022/01/15 02:40:55;;;;;;;145.93;27.37;;;;;;;-0.90;71.00;100575.53;5064579;28;20222;-66
2022/01/15 02:43:30;;;;;;;151.23;28.70;;;;;;;-0.98;70.40;100551.53;5063987;28;20233;-67
2022/01/15 02:46:00;;;;;;;68.80;23.67;;;;;;;-0.88;70.48;100551.88;5057374;28;20229;-67
2022/01/15 02:48:28;;;;;;;220.00;28.43;;;;;;;-1.48;72.11;100558.28;5065049;28;20219;-67
2022/01/15 02:50:56;;;;;;;199.30;28.03;;;;;;;-1.26;72.18;100575.56;5064781;28;20227;-66
2022/01/15 02:53:23;;;;;;;126.00;26.60;;;;;;;-1.51;72.14;100550.59;5063365;28;20237;-67
2022/01/15 02:55:53;;;;;;;214.50;30.27;;;;;;;-1.35;70.50;100526.28;5064361;28;20233;-67
2022/01/15 02:58:22;;;;;;;185.40;31.23;;;;;;;-1.35;72.32;100562.91;5064650;28;20227;-67
2022/01/15 03:00:51;;;;;;;111.63;26.73;;;;;;;-1.16;71.11;100541.94;5055829;28;20574;-66
2022/01/15 03:03:18;;;;;;;161.90;31.27;;;;;;;-0.27;68.88;100562.69;5064020;28;20235;-67
2022/01/15 03:05:45;;;;;;;151.77;29.83;;;;;;;-1.17;71.93;100574.28;5064932;28;20219;-66
2022/01/15 03:08:12;;;;;;;130.17;29.40;;;;;;;-0.56;70.34;100578.19;5060169;28;20231;-67
2022/01/15 03:10:39;;;;;;;140.43;31.33;;;;;;;-0.84;70.16;100547.34;5055264;28;20251;-66
2022/01/15 03:13:12;;;;;;;92.93;28.87;;;;;;;-0.54;69.50;100550.13;5054646;28;20546;-67
2022/01/15 03:15:40;;;;;;;136.10;30.33;;;;;;;-0.77;68.99;100525.16;5054210;28;20237;-67
2022/01/15 03:18:07;;;;;;;158.50;31.77;;;;;;;-0.69;69.18;100522.97;5055798;28;20227;-67
2022/01/15 03:20:35;;;;;;;111.83;29.80;;;;;;;-1.34;71.68;100535.84;5053589;28;20239;-66
2022/01/15 03:23:02;;;;;;;138.97;31.47;;;;;;;-1.02;71.38;100557.81;5054530;28;20234;-66
2022/01/15 03:25:29;;;;;;;95.10;29.37;;;;;;;-1.20;70.97;100530.75;5054067;28;20230;-67
2022/01/15 03:27:56;;;;;;;159.27;33.30;;;;;;;-0.86;70.54;100548.25;5054815;28;20741;-67
2022/01/15 03:30:23;;;;;;;166.83;34.20;;;;;;;-1.28;72.73;100570.41;5054611;28;20234;-66
2022/01/15 03:32:50;;;;;;;149.67;32.73;;;;;;;-0.36;69.54;100554.41;5053153;28;20227;-66
2022/01/15 03:35:17;;;;;;;214.63;34.43;;;;;;;-0.95;71.18;100543.47;5059534;28;20248;-67
2022/01/15 03:37:45;;;;;;;146.43;31.83;;;;;;;-0.46;68.87;100531.38;5061471;28;20222;-67
2022/01/15 03:40:15;;;;;;;145.07;31.43;;;;;;;-0.51;69.34;100535.09;5059177;28;20233;-67
2022/01/15 03:42:43;;;;;;;156.40;33.13;;;;;;;-1.88;72.21;100493.97;5064162;28;20238;-67
2022/01/15 03:45:11;;;;;;;130.57;30.47;;;;;;;-1.06;69.91;100512.56;5064276;28;20244;-67
2022/01/15 03:47:40;;;;;;;195.60;34.43;;;;;;;-1.04;71.03;100525.63;5068243;28;20250;-67
2022/01/15 03:50:08;;;;;;;119.97;31.40;;;;;;;-0.71;70.31;100530.91;5068473;28;20268;-67
2022/01/15 03:52:35;;;;;;;140.40;31.50;;;;;;;-0.96;70.17;100510.38;5068640;28;20232;-67
2022/01/15 03:55:03;;;;;;;121.77;33.13;;;;;;;-1.02;70.90;100529.00;5066733;28;20227;-67
2022/01/15 03:57:30;;;;;;;152.37;33.60;;;;;;;-1.23;71.35;100509.97;5066880;28;20219;-67
2022/01/15 03:59:58;;;;;;;205.97;33.93;;;;;;;-1.40;72.43;100523.91;5068351;28;20637;-67
2022/01/15 04:02:25;;;;;;;191.13;34.27;;;;;;;-1.62;73.09;100518.88;5066965;28;20651;-66
2022/01/15 04:04:53;;;;;;;186.97;37.10;;;;;;;-1.09;71.36;100511.91;5066815;28;20222;-66
2022/01/15 04:07:19;;;;;;;168.33;32.30;;;;;;;-0.62;69.91;100498.13;5067846;28;20240;-66
2022/01/15 04:09:46;;;;;;;166.17;34.43;;;;;;;-0.98;70.88;100501.75;5068036;28;20831;-67
2022/01/15 04:12:13;;;;;;;165.43;33.80;;;;;;;-0.58;70.06;100507.50;5067709;28;20687;-67
2022/01/15 04:14:40;;;;;;;111.50;32.70;;;;;;;-0.76;70.68;100506.72;5066157;28;20238;-67
2022/01/15 04:17:08;;;;;;;114.30;31.80;;;;;;;-0.79;71.29;100512.13;5067158;28;20253;-67
2022/01/15 04:19:36;;;;;;;115.97;34.30;;;;;;;-1.49;72.78;100498.19;5067767;28;20582;-67
2022/01/15 04:22:03;;;;;;;126.20;32.57;;;;;;;-1.18;71.13;100491.41;5067882;28;20244;-67
2022/01/15 04:24:30;;;;;;;107.67;35.40;;;;;;;-0.90;71.15;100491.69;5066035;28;20223;-67
2022/01/15 04:26:57;;;;;;;105.80;32.70;;;;;;;-1.12;72.48;100512.03;5065831;28;20232;-67
2022/01/15 04:29:24;;;;;;;118.40;33.87;;;;;;;-0.92;71.24;100500.59;5067359;28;20265;-66
2022/01/15 04:31:51;;;;;;;97.07;33.57;;;;;;;-1.17;72.44;100498.34;5067829;28;20220;-67
2022/01/15 04:34:29;;;;;;;91.00;32.77;;;;;;;-0.74;71.52;100515.34;5066651;28;20234;-67
2022/01/15 04:37:04;;;;;;;88.43;32.93;;;;;;;-1.19;71.80;100490.56;5046709;28;20219;-67
2022/01/15 04:39:31;;;;;;;104.90;34.90;;;;;;;-1.43;73.74;100519.66;5064106;28;20745;-67
2022/01/15 04:41:57;;;;;;;91.67;32.47;;;;;;;-1.20;71.69;100501.94;5065657;28;20233;-67
2022/01/15 04:44:24;;;;;;;97.57;32.63;;;;;;;-1.40;72.94;100502.97;5065999;28;20230;-67
2022/01/15 04:46:52;;;;;;;90.67;31.27;;;;;;;-1.20;72.60;100509.81;5066370;28;20710;-67
2022/01/15 04:49:19;;;;;;;90.77;32.80;;;;;;;-0.51;70.17;100500.16;5068009;28;20232;-69
2022/01/15 04:51:46;;;;;;;91.13;31.67;;;;;;;-0.97;70.48;100466.75;5066968;28;20223;-67
2022/01/15 04:54:13;;;;;;;81.83;31.97;;;;;;;-1.30;70.71;100453.59;5065431;28;20229;-67
2022/01/15 04:56:40;;;;;;;90.17;32.13;;;;;;;-0.77;70.92;100481.44;5066254;28;20439;-66
2022/01/15 04:59:07;;;;;;;91.33;31.90;;;;;;;-1.35;72.42;100489.63;5067250;28;20227;-66
2022/01/15 05:01:34;;;;;;;83.00;30.53;;;;;;;-1.38;71.28;100474.94;5065277;28;20223;-66
2022/01/15 05:04:01;;;;;;;96.43;31.10;;;;;;;-0.82;70.39;100490.47;5066860;28;20257;-67
2022/01/15 05:06:28;;;;;;;71.37;29.07;;;;;;;-1.37;72.86;100507.19;5065996;28;20223;-66
2022/01/15 05:09:04;;;;;;;74.40;30.77;;;;;;;-0.53;69.81;100491.56;5064560;28;20220;-67
2022/01/15 05:11:44;;;;;;;79.57;29.47;;;;;;;-0.90;70.79;100501.34;5066407;28;20215;-66
2022/01/15 05:14:17;;;;;;;85.80;29.33;;;;;;;-1.52;71.92;100480.00;5065492;28;20577;-66
2022/01/15 05:16:44;;;;;;;87.77;28.17;;;;;;;-1.07;72.66;100521.34;5066454;28;20621;-66
2022/01/15 05:19:12;;;;;;;92.20;29.03;;;;;;;-0.96;71.17;100505.13;5065170;28;20621;-66
2022/01/15 05:21:38;;;;;;;89.47;28.30;;;;;;;-2.00;73.88;100496.25;5066956;28;20241;-66
2022/01/15 05:24:06;;;;;;;69.80;28.27;;;;;;;-1.12;72.27;100518.13;5065871;28;20223;-67
2022/01/15 05:26:33;;;;;;;85.57;27.73;;;;;;;-1.45;70.90;100484.88;5065450;28;20729;-66
2022/01/15 05:29:00;;;;;;;82.03;27.03;;;;;;;-1.91;73.24;100505.41;5064335;28;20227;-66
2022/01/15 05:31:27;;;;;;;81.53;25.73;;;;;;;-1.29;72.16;100515.50;5065241;28;20263;-66
2022/01/15 05:33:55;;;;;;;90.53;24.73;;;;;;;-1.37;72.68;100530.75;5066306;28;20223;-67
2022/01/15 05:36:21;;;;;;;94.90;25.23;;;;;;;-1.21;72.49;100523.84;5055158;28;20219;-66
2022/01/15 05:38:48;;;;;;;88.67;23.27;;;;;;;-1.87;72.12;100479.97;5066025;28;20233;-66
2022/01/15 05:41:15;;;;;;;57.27;22.63;;;;;;;-0.56;70.80;100525.78;5062862;28;20646;-67
2022/01/15 05:43:42;;;;;;;75.00;24.93;;;;;;;-1.70;72.86;100507.94;5045949;28;20262;-66
2022/01/15 05:46:09;;;;;;;63.90;25.20;;;;;;;-0.44;68.88;100491.06;5060364;28;20710;-67
2022/01/15 05:48:37;;;;;;;73.60;23.70;;;;;;;-0.71;70.54;100501.22;5065936;28;20223;-66
2022/01/15 05:51:04;;;;;;;90.57;24.30;;;;;;;-0.97;70.52;100486.88;5065684;28;20230;-67
2022/01/15 05:53:31;;;;;;;65.80;23.73;;;;;;;-1.18;70.21;100468.69;5064289;28;20525;-66
2022/01/15 05:55:58;;;;;;;96.73;24.87;;;;;;;-1.36;70.88;100478.31;5065988;28;20231;-66
2022/01/15 05:58:25;;;;;;;85.90;25.63;;;;;;;-2.54;74.05;100450.84;5065554;28;20234;-67
2022/01/15 06:00:52;;;;;;;70.53;24.03;;;;;;;-0.76;71.19;100525.06;5065349;28;20218;-66
2022/01/15 06:03:19;;;;;;;67.00;21.93;;;;;;;-1.84;73.34;100504.22;5065411;28;20233;-66
2022/01/15 06:05:46;;;;;;;74.37;23.73;;;;;;;-0.79;70.89;100519.97;5065674;28;20804;-66
2022/01/15 06:08:13;;;;;;;112.83;25.83;;;;;;;-1.14;72.07;100525.22;5063985;28;20227;-66
2022/01/15 06:10:41;;;;;;;67.33;23.33;;;;;;;-1.34;72.28;100522.75;5065522;28;20277;-67
2022/01/15 06:13:08;;;;;;;62.57;22.70;;;;;;;-1.14;72.70;100537.47;5059427;28;20234;-66
2022/01/15 06:15:35;;;;;;;66.83;22.53;;;;;;;-1.42;72.52;100523.97;5065161;28;20229;-66
2022/01/15 06:18:02;;;;;;;67.27;21.60;;;;;;;-1.00;71.08;100518.47;5065066;28;20223;-66
2022/01/15 06:20:29;;;;;;;74.10;22.23;;;;;;;-1.44;71.82;100517.94;5065205;28;20224;-66
2022/01/15 06:22:56;;;;;;;57.37;22.93;;;;;;;-1.60;72.77;100519.66;5064214;28;20229;-66
2022/01/15 06:25:23;;;;;;;70.80;22.13;;;;;;;-1.32;71.80;100502.56;5065271;28;20224;-66
2022/01/15 06:27:50;;;;;;;82.20;22.53;;;;;;;-1.13;70.56;100494.63;5056818;28;20523;-66
2022/01/15 06:30:17;;;;;;;67.30;21.43;;;;;;;-2.18;74.07;100491.88;5064945;28;20610;-67
2022/01/15 06:32:47;;;;;;;70.47;21.43;;;;;;;-1.53;73.03;100523.66;5065110;28;20243;-66
2022/01/15 06:35:17;;;;;;;98.60;23.87;;;;;;;-1.46;71.65;100484.94;5058011;28;20620;-66
2022/01/15 06:37:47;;;;;;;81.27;22.93;;;;;;;-1.42;72.91;100517.88;5047172;28;20230;-66
2022/01/15 06:40:15;;;;;;;93.77;23.80;;;;;;;-1.06;71.63;100507.34;5064780;28;20219;-66
2022/01/15 06:42:43;;;;;;;71.87;22.53;;;;;;;-0.97;71.29;100500.81;5065968;28;20750;-66
2022/01/15 06:45:10;;;;;;;122.83;24.77;;;;;;;-1.18;71.86;100512.34;5064189;28;20245;-67
2022/01/15 06:47:38;;;;;;;127.83;25.33;;;;;;;-1.08;70.46;100490.88;5062693;28;20237;-66
2022/01/15 06:50:08;;;;;;;90.87;23.47;;;;;;;-0.92;70.25;100503.19;5065310;28;20598;-66
2022/01/15 06:52:36;;;;;;;90.30;24.27;;;;;;;-1.22;71.42;100506.41;5064794;28;20233;-66
2022/01/15 06:55:05;;;;;;;73.37;23.90;;;;;;;-1.17;70.57;100495.72;5061487;28;20226;-66
2022/01/15 06:57:32;;;;;;;81.33;23.87;;;;;;;-0.97;71.00;100505.22;5064587;28;20257;-66
2022/01/15 07:00:01;;;;;;;64.93;23.37;;;;;;;-0.51;69.58;100505.41;5065755;28;20227;-66
2022/01/15 07:02:27;;;;;;;113.83;25.40;;;;;;;-1.28;71.52;100498.91;5061432;28;20219;-66
2022/01/15 07:04:54;;;;;;;74.23;22.83;;;;;;;-1.02;71.13;100507.22;5063252;28;20725;-66
2022/01/15 07:07:21;;;;;;;79.77;23.23;;;;;;;-0.80;70.34;100505.19;5064061;28;20235;-66
2022/01/15 07:09:48;;;;;;;88.03;24.23;;;;;;;-1.47;70.36;100468.41;5065202;28;20231;-67
2022/01/15 07:12:15;;;;;;;77.03;22.80;;;;;;;-0.97;70.50;100505.22;5064623;28;20220;-67
2022/01/15 07:14:42;;;;;;;100.23;24.13;;;;;;;-1.80;71.51;100471.75;5063196;28;20520;-66
2022/01/15 07:17:10;;;;;;;79.27;22.97;;;;;;;-1.47;73.19;100531.22;5063809;28;20227;-66
2022/01/15 07:19:37;;;;;;;75.47;24.03;;;;;;;-1.20;72.26;100511.56;5067399;28;20229;-66
2022/01/15 07:22:05;;;;;;;85.50;23.13;;;;;;;-1.13;71.92;100508.59;5068872;28;20858;-66
2022/01/15 07:24:33;;;;;;;96.20;25.83;;;;;;;-0.75;69.58;100500.53;5066755;28;20749;-66
2022/01/15 07:27:01;;;;;;;86.43;26.37;;;;;;;-0.71;69.68;100503.84;5068022;28;20231;-66
2022/01/15 07:29:30;;;;;;;76.40;24.07;;;;;;;-0.84;69.65;100487.09;5067335;28;20223;-66
2022/01/15 07:31:57;;;;;;;84.00;25.57;;;;;;;-0.99;70.22;100488.75;5069148;28;20231;-66
2022/01/15 07:34:24;;;;;;;68.97;24.97;;;;;;;-0.82;70.55;100500.97;5065817;28;20230;-66
2022/01/15 07:36:57;;;;;;;89.30;26.13;;;;;;;-1.08;71.03;100493.50;5060985;28;20223;-66
2022/01/15 07:39:26;;;;;;;68.77;23.57;;;;;;;-1.01;71.53;100508.91;5067915;28;20750;-66
2022/01/15 07:41:55;;;;;;;90.00;26.07;;;;;;;-0.81;70.66;100518.34;5063484;28;20227;-66
2022/01/15 07:44:22;;;;;;;72.67;24.13;;;;;;;-0.74;70.27;100507.47;5051666;28;20682;-66
2022/01/15 07:46:49;;;;;;;76.17;24.67;;;;;;;-0.93;70.05;100497.13;5059204;28;20231;-66
2022/01/15 07:49:16;;;;;;;65.97;24.83;;;;;;;-0.12;68.22;100505.03;5060997;28;20239;-66
2022/01/15 07:51:43;;;;;;;69.47;25.13;;;;;;;-1.06;70.23;100483.78;5051220;28;20648;-67
2022/01/15 07:54:10;;;;;;;82.03;25.70;;;;;;;-0.64;70.37;100515.72;5067569;28;20226;-66
2022/01/15 07:56:37;;;;;;;73.27;23.37;;;;;;;-0.36;68.50;100507.19;5067245;28;20219;-67
2022/01/15 07:59:04;;;;;;;62.60;24.60;;;;;;;-0.13;67.82;100498.09;5067940;28;20225;-66
2022/01/15 08:01:31;;;;;;;56.30;24.33;;;;;;;-0.54;69.24;100505.56;5067256;28;20224;-66
2022/01/15 08:03:58;;;;;;;85.97;25.40;;;;;;;-0.61;69.90;100499.84;5067364;28;20229;-66
2022/01/15 08:06:25;;;;;;;63.53;24.37;;;;;;;-1.30;71.43;100488.50;5067246;28;20229;-67
2022/01/15 08:08:51;;;;;;;62.97;24.00;;;;;;;-0.73;69.85;100497.84;5067791;28;20219;-66
2022/01/15 08:11:18;;;;;;;65.70;25.77;;;;;;;-0.86;70.79;100508.13;5068550;28;20835;-66
2022/01/15 08:13:45;;;;;;;94.03;25.40;;;;;;;-0.62;68.61;100481.56;5064956;28;20218;-66
2022/01/15 08:16:12;;;;;;;60.43;22.77;;;;;;;-0.34;68.62;100488.78;5066544;28;20699;-69
2022/01/15 08:18:39;;;;;;;91.03;24.20;;;;;;;-0.74;69.11;100473.44;5067020;28;20223;-69
2022/01/15 08:21:06;;;;;;;86.37;26.13;;;;;;;-0.01;68.16;100514.94;5067034;28;20796;-69
2022/01/15 08:23:35;;;;;;;60.80;24.67;;;;;;;-0.43;68.65;100484.88;5066677;28;20703;-69
2022/01/15 08:26:03;;;;;;;78.43;25.43;;;;;;;-0.27;68.81;100508.50;5064501;28;20501;-69
2022/01/15 08:28:30;;;;;;;95.17;26.20;;;;;;;-0.16;67.83;100487.78;5065955;28;20219;-67
2022/01/15 08:30:57;;;;;;;70.80;26.43;;;;;;;-0.18;67.54;100483.56;5064846;28;20254;-68
2022/01/15 08:33:24;;;;;;;76.43;27.23;;;;;;;0.05;67.34;100505.91;5065635;28;20221;-68
2022/01/15 08:35:51;;;;;;;70.30;27.67;;;;;;;0.08;67.76;100511.81;5066575;28;20267;-67
2022/01/15 08:38:18;;;;;;;86.80;26.63;;;;;;;0.08;67.04;100505.69;5066362;28;20227;-68
2022/01/15 08:40:45;;;;;;;95.27;27.67;;;;;;;-0.19;68.09;100506.31;5066889;28;20223;-69
2022/01/15 08:43:12;;;;;;;76.07;26.70;;;;;;;0.17;66.74;100509.59;5043258;28;20778;-69
2022/01/15 08:45:39;;;;;;;89.77;28.63;;;;;;;-0.15;67.24;100491.25;5046569;28;20216;-69
2022/01/15 08:48:07;;;;;;;93.97;28.13;;;;;;;-0.40;68.90;100500.44;5046407;28;20603;-70
2022/01/15 08:50:35;;;;;;;70.67;26.33;;;;;;;-0.28;68.71;100506.81;5045169;28;20226;-69
2022/01/15 08:53:06;;;;;;;95.27;27.63;;;;;;;0.19;67.32;100518.22;5043164;28;20230;-67
2022/01/15 08:55:38;;;;;;;66.30;27.17;;;;;;;0.20;67.77;100527.78;5042243;28;20220;-67
2022/01/15 08:58:05;;;;;;;85.77;27.77;;;;;;;-0.12;67.67;100486.69;5041790;28;20450;-70
2022/01/15 09:00:32;;;;;;;81.97;28.87;;;;;;;-0.36;68.26;100477.53;5046135;28;20235;-68
2022/01/15 09:02:59;;;;;;;69.47;27.00;;;;;;;-0.25;68.56;100504.03;5044045;28;20686;-69
2022/01/15 09:05:26;;;;;;;97.97;27.60;;;;;;;-0.32;68.19;100487.78;5044385;28;20219;-68
2022/01/15 09:07:54;;;;;;;94.90;29.30;;;;;;;0.07;67.35;100494.38;5046900;28;20230;-66
2022/01/15 09:10:21;;;;;;;72.37;28.73;;;;;;;-0.12;68.41;100486.69;5043565;28;20246;-67
2022/01/15 09:12:48;;;;;;;71.73;26.97;;;;;;;-0.53;68.32;100467.97;5041996;28;20227;-66
2022/01/15 09:15:28;;;;;;;71.17;27.97;;;;;;;0.58;67.03;100524.78;5044143;28;20599;-67
2022/01/15 09:17:55;;;;;;;105.87;28.20;;;;;;;0.08;67.13;100482.94;5046074;28;20633;-66
2022/01/15 09:20:22;;;;;;;69.40;28.83;;;;;;;-0.23;68.39;100475.09;5043893;28;20220;-67
2022/01/15 09:22:49;;;;;;;76.27;28.07;;;;;;;-0.26;69.28;100493.63;5037336;28;20217;-66
2022/01/15 09:25:16;;;;;;;85.03;27.37;;;;;;;0.29;67.79;100503.66;5046962;28;20224;-66
2022/01/15 09:30:29;;;;;;;84.20;28.03;;;;;;;0.93;65.67;100491.19;5043389;28;20231;-66
2022/01/15 09:32:58;;;;;;;107.70;27.50;;;;;;;0.00;68.48;100461.56;5045062;28;20234;-66
2022/01/15 09:35:30;;;;;;;109.73;28.83;;;;;;;0.54;66.64;100465.47;5045692;28;20224;-66
2022/01/15 09:37:58;;;;;;;80.13;27.20;;;;;;;0.16;68.81;100473.78;5039398;28;20224;-66
2022/01/15 09:40:27;;;;;;;100.53;27.97;;;;;;;0.43;67.81;100477.44;5046258;28;20759;-66
2022/01/15 09:42:54;;;;;;;95.00;26.63;;;;;;;-0.75;70.67;100439.44;5043886;28;20228;-66
2022/01/15 09:45:23;;;;;;;135.33;27.60;;;;;;;-0.21;69.44;100449.63;5045627;28;20238;-66
2022/01/15 09:48:01;;;;;;;91.47;26.30;;;;;;;0.76;67.43;100475.59;5045238;28;20234;-66
2022/01/15 09:50:30;;;;;;;100.60;24.87;;;;;;;0.21;69.12;100456.00;5041166;28;20224;-66
2022/01/15 09:52:57;;;;;;;92.43;28.47;;;;;;;0.53;67.44;100441.03;5031525;28;20615;-66
2022/01/15 09:55:25;;;;;;;95.77;26.40;;;;;;;0.66;67.08;100440.28;5032868;28;20907;-66
2022/01/15 09:57:53;;;;;;;87.73;27.53;;;;;;;0.41;68.01;100439.94;5032974;28;20232;-66
2022/01/15 10:00:24;;;;;;;98.50;27.70;;;;;;;0.58;68.02;100448.63;5034571;28;20217;-67
2022/01/15 10:02:52;;;;;;;84.97;26.70;;;;;;;0.50;68.48;100456.94;5035699;28;20221;-66
2022/01/15 10:05:19;;;;;;;86.37;25.10;;;;;;;0.63;68.47;100454.47;5040362;28;20223;-67
2022/01/15 10:07:59;;;;;;;97.47;26.77;;;;;;;-0.18;70.59;100424.06;5051459;28;20553;-67
2022/01/15 10:10:28;;;;;;;116.80;29.00;;;;;;;0.53;69.35;100453.31;5057340;28;20223;-67
2022/01/15 10:13:09;;;;;;;93.10;25.47;;;;;;;0.26;68.77;100414.59;5054122;28;20223;-67
2022/01/15 10:15:36;;;;;;;100.53;28.07;;;;;;;-0.49;71.91;100433.66;5051154;28;20219;-66
2022/01/15 10:18:27;;;;;;;74.80;25.37;;;;;;;0.52;69.49;100449.84;5053481;28;20232;-66
2022/01/15 10:21:08;;;;;;;77.47;25.33;;;;;;;-0.09;70.47;100412.22;5052738;28;20227;-66
2022/01/15 10:23:46;;;;;;;93.80;27.17;;;;;;;0.07;68.83;100383.34;5048137;28;20228;-66
2022/01/15 10:26:22;;;;;;;88.30;27.77;;;;;;;-0.43;70.76;100390.50;5054108;28;20229;-67
2022/01/15 10:28:50;;;;;;;99.13;30.00;;;;;;;0.26;69.74;100418.06;5049441;28;20226;-67
2022/01/15 10:31:22;;;;;;;86.50;28.07;;;;;;;-0.08;70.45;100397.34;5056146;28;20883;-66
2022/01/15 10:33:49;;;;;;;91.73;29.67;;;;;;;0.38;68.91;100395.50;5062785;28;20232;-66
2022/01/15 10:36:25;;;;;;;78.53;29.40;;;;;;;0.69;67.65;100401.59;5061231;28;20228;-67
2022/01/15 10:38:52;;;;;;;72.63;26.10;;;;;;;0.95;67.91;100402.63;5056392;28;20215;-66
2022/01/15 10:41:30;;;;;;;66.10;25.27;;;;;;;1.17;66.54;100389.00;5060627;28;20227;-66
2022/01/15 10:43:57;;;;;;;71.50;27.17;;;;;;;0.31;69.38;100367.94;5057146;28;20763;-67
2022/01/15 10:46:35;;;;;;;75.13;27.83;;;;;;;1.01;67.41;100393.53;5056777;28;20688;-70
2022/01/15 10:49:29;;;;;;;74.37;28.13;;;;;;;0.54;68.44;100361.34;5057644;28;20219;-69
2022/01/15 10:52:11;;;;;;;69.93;26.73;;;;;;;0.26;70.19;100370.00;5053708;28;20247;-72
2022/01/15 10:54:49;;;;;;;74.73;26.97;;;;;;;0.52;68.97;100371.09;5054350;28;20228;-69
2022/01/15 10:57:19;;;;;;;72.77;26.67;;;;;;;0.72;68.38;100366.41;5049761;28;20241;-67
2022/01/15 10:59:56;;;;;;;69.90;27.53;;;;;;;0.54;69.26;100366.59;5062104;28;20221;-66
2022/01/15 11:03:50;;;;;;;81.97;26.17;;;;;;;-0.60;74.10;100420.28;5088871;27;20595;-66
2022/01/15 11:06:34;;;;;;;83.17;28.47;;;;;;;-0.60;73.41;100390.63;5061693;28;20227;-66
2022/01/15 11:09:02;;;;;;;72.73;28.03;;;;;;;-0.52;73.67;100394.50;5042559;28;20224;-66
2022/01/15 11:11:32;;;;;;;88.07;27.90;;;;;;;-0.65;72.48;100363.81;5038433;28;20235;-66
2022/01/15 11:13:59;;;;;;;94.83;27.50;;;;;;;-0.43;73.23;100380.03;5038044;28;20232;-66
2022/01/15 11:16:26;;;;;;;76.27;26.77;;;;;;;-0.35;73.05;100375.22;5046424;28;20219;-66
2022/01/15 11:18:54;;;;;;;75.90;27.57;;;;;;;-0.03;71.82;100383.03;5042012;28;20227;-66
2022/01/15 11:21:25;;;;;;;75.90;26.67;;;;;;;0.40;70.35;100372.66;5041220;28;20605;-66
2022/01/15 11:23:53;;;;;;;78.70;27.63;;;;;;;-0.24;72.04;100348.38;5038346;28;20224;-66
2022/01/15 11:26:27;;;;;;;68.43;26.47;;;;;;;-0.21;71.98;100361.31;5048425;28;20225;-66
2022/01/15 11:28:55;;;;;;;74.47;26.10;;;;;;;0.09;71.06;100355.25;5041308;28;20224;-66
2022/01/15 11:31:25;;;;;;;68.87;26.93;;;;;;;0.76;69.65;100375.81;5040792;28;20227;-66
2022/01/15 11:33:58;;;;;;;62.60;25.33;;;;;;;0.43;69.69;100353.25;5040740;28;20220;-68
2022/01/15 11:36:33;;;;;;;84.60;27.73;;;;;;;0.32;70.26;100353.91;5041472;28;20216;-66
2022/01/15 11:39:03;;;;;;;59.60;24.87;;;;;;;0.39;70.45;100346.50;5040274;28;20307;-66
2022/01/15 11:41:30;;;;;;;62.70;26.17;;;;;;;0.50;70.40;100361.59;5056409;28;20231;-67
2022/01/15 11:44:04;;;;;;;80.37;27.87;;;;;;;0.67;69.37;100350.09;5059948;28;20604;-66
2022/01/15 11:47:18;;;;;;;73.50;27.00;;;;;;;0.74;69.38;100340.88;5060466;28;20220;-67